FDK weather

Frederick Municipal Airport
Frederick, Maryland, United States

Public forecast

Using degrees Fahrenheit for public forecast. Weather courtesy of forecast.io.

Current aviation weather report (METAR) for Frederick Municipal Airport

Retrieved 2019/11/17 15:47 UTC (37 minutes ago):

KFDK 171547Z 02009KT 10SM OCV021 03/M08 A3027

Closest aviation forecast (TAF) to Frederick Municipal Airport

Closest forecast is Eastern WV Regional Airport/Shepherd Field, 28.3 nm (52.5 km) W. Retrieved 2019/11/17 12:30 UTC (4 hours ago):

TAF KMRB 171127Z 1712/1812 36006KT P6SM SCT020 BKN045 FM171500 02005KT P6SM SCT020 BKN030 FM171800 02005KT P6SM SCT030 BKN035 FM180200 36004KT P6SM SCT015 BKN040 FM180400 35004KT P6SM SCT015 BKN030 FM180600 VRB03KT P6SM SCT010 BKN020